createdAt,value
2022-08-17T00:00:06.237Z,75.81
2022-08-17T00:02:42.853Z,76.06
2022-08-17T00:05:10.924Z,75.69
2022-08-17T00:07:38.684Z,75.65
2022-08-17T00:10:07.349Z,75.44
2022-08-17T00:12:44.326Z,75.77
2022-08-17T00:15:13.774Z,76.92
2022-08-17T00:17:43.422Z,76.17
2022-08-17T00:20:13.358Z,75.80
2022-08-17T00:22:42.744Z,75.31
2022-08-17T00:25:13.168Z,75.23
2022-08-17T00:27:41.479Z,75.16
2022-08-17T00:30:11.798Z,75.20
2022-08-17T00:33:10.814Z,75.77
2022-08-17T00:35:30.388Z,75.72
2022-08-17T00:37:58.157Z,75.83
2022-08-17T00:40:25.846Z,74.95
2022-08-17T00:42:54.040Z,75.21
2022-08-17T00:45:22.689Z,74.80
2022-08-17T00:47:50.477Z,74.88
2022-08-17T00:50:19.960Z,74.92
2022-08-17T00:52:53.717Z,75.02
2022-08-17T00:55:22.495Z,75.39
2022-08-17T00:57:55.431Z,74.85
2022-08-17T01:00:26.818Z,74.31
2022-08-17T01:02:58.748Z,75.02
2022-08-17T01:05:28.912Z,74.84
2022-08-17T01:07:58.994Z,75.13
2022-08-17T01:11:00.145Z,75.29
2022-08-17T01:13:19.229Z,74.98
2022-08-17T01:15:49.460Z,75.00
2022-08-17T01:18:17.480Z,74.82
2022-08-17T01:20:48.928Z,74.84
2022-08-17T01:23:21.288Z,74.83
2022-08-17T01:25:50.741Z,74.92
2022-08-17T01:28:33.651Z,74.88
2022-08-17T01:31:08.528Z,74.74
2022-08-17T01:33:36.843Z,75.04
2022-08-17T01:36:06.785Z,75.01
2022-08-17T01:38:36.289Z,74.74
2022-08-17T01:41:06.684Z,75.53
2022-08-17T01:43:39.777Z,74.71
2022-08-17T01:46:07.919Z,75.45
2022-08-17T01:48:38.905Z,74.78
2022-08-17T01:51:07.447Z,74.84
2022-08-17T01:53:40.489Z,74.81
2022-08-17T01:56:12.457Z,74.75
2022-08-17T01:58:42.355Z,75.18
2022-08-17T02:01:12.760Z,75.25
2022-08-17T02:03:40.557Z,75.26
2022-08-17T02:06:27.978Z,75.43
2022-08-17T02:09:02.689Z,74.68
2022-08-17T02:11:32.609Z,75.18
2022-08-17T02:14:03.483Z,74.80
2022-08-17T02:16:37.755Z,75.03
2022-08-17T02:19:07.966Z,74.92
2022-08-17T02:21:36.454Z,75.88
2022-08-17T02:24:06.553Z,74.73
2022-08-17T02:26:34.544Z,75.09
2022-08-17T02:29:04.279Z,74.76
2022-08-17T02:31:32.072Z,74.91
2022-08-17T02:34:04.195Z,74.52
2022-08-17T02:36:34.626Z,74.47
2022-08-17T02:39:02.915Z,74.54
2022-08-17T02:41:31.961Z,74.87
2022-08-17T02:43:59.693Z,74.55
2022-08-17T02:46:27.800Z,74.79
2022-08-17T02:48:55.636Z,74.48
2022-08-17T02:51:23.477Z,74.64
2022-08-17T02:53:51.178Z,74.54
2022-08-17T02:56:19.128Z,74.99
2022-08-17T02:58:48.272Z,74.96
2022-08-17T03:01:16.206Z,75.16
2022-08-17T03:03:44.061Z,74.81
2022-08-17T03:06:12.046Z,75.37
2022-08-17T03:08:41.152Z,74.80
2022-08-17T03:11:08.848Z,75.41
2022-08-17T03:13:36.641Z,75.24
2022-08-17T03:16:06.351Z,75.49
2022-08-17T03:18:34.064Z,75.38
2022-08-17T03:21:04.199Z,75.17
2022-08-17T03:23:32.961Z,75.35
2022-08-17T03:26:01.706Z,75.21
2022-08-17T03:28:30.072Z,76.04
2022-08-17T03:30:57.797Z,75.73
2022-08-17T03:33:26.978Z,75.05
2022-08-17T03:35:54.709Z,75.15
2022-08-17T03:38:23.306Z,75.04
2022-08-17T03:40:57.564Z,75.69
2022-08-17T03:43:28.775Z,75.07
2022-08-17T03:46:33.842Z,74.70
2022-08-17T03:49:22.158Z,75.00
2022-08-17T03:52:22.077Z,74.96
2022-08-17T03:55:07.614Z,75.03
2022-08-17T03:57:35.344Z,74.95
2022-08-17T04:00:04.368Z,75.08
2022-08-17T04:02:34.392Z,75.18
2022-08-17T04:05:04.498Z,75.62
2022-08-17T04:07:32.424Z,75.24
2022-08-17T04:10:00.732Z,75.10
2022-08-17T04:12:31.333Z,75.35
2022-08-17T04:14:59.215Z,75.11
2022-08-17T04:17:28.963Z,75.20
2022-08-17T04:19:57.106Z,75.19
2022-08-17T04:22:33.343Z,74.85
2022-08-17T04:25:08.801Z,74.95
2022-08-17T04:27:36.949Z,74.83
2022-08-17T04:30:11.445Z,74.85
2022-08-17T04:33:00.635Z,74.91
2022-08-17T04:35:36.409Z,75.25
2022-08-17T04:38:05.850Z,74.37
2022-08-17T04:40:51.069Z,74.92
2022-08-17T04:43:22.026Z,75.43
2022-08-17T04:45:56.168Z,74.85
2022-08-17T04:48:32.239Z,75.39
2022-08-17T04:51:09.077Z,75.67
2022-08-17T04:53:39.055Z,75.73
2022-08-17T04:56:07.389Z,76.26
2022-08-17T04:58:39.704Z,76.10
2022-08-17T05:01:07.952Z,76.58
2022-08-17T05:03:36.085Z,76.50
2022-08-17T05:06:04.077Z,76.70
2022-08-17T05:08:31.819Z,76.47
2022-08-17T05:11:01.198Z,76.23
2022-08-17T05:13:30.574Z,77.02
2022-08-17T05:16:00.039Z,77.05
2022-08-17T05:18:29.113Z,77.66
2022-08-17T05:20:57.850Z,78.26
2022-08-17T05:23:26.866Z,78.55
2022-08-17T05:26:06.302Z,78.71
2022-08-17T05:28:37.202Z,79.35
2022-08-17T05:31:05.957Z,78.61
2022-08-17T05:33:35.846Z,78.59
2022-08-17T05:36:05.891Z,79.11
2022-08-17T05:38:34.060Z,79.94
2022-08-17T05:41:06.876Z,79.35
2022-08-17T05:43:37.145Z,79.38
2022-08-17T05:46:07.611Z,79.96
2022-08-17T05:48:39.968Z,79.91
2022-08-17T05:51:21.185Z,80.30
2022-08-17T05:53:54.207Z,79.56
2022-08-17T05:56:32.304Z,80.43
2022-08-17T05:59:06.322Z,80.24
2022-08-17T06:01:42.128Z,80.74
2022-08-17T06:04:18.113Z,79.81
2022-08-17T06:06:51.648Z,81.38
2022-08-17T06:09:33.951Z,81.31
2022-08-17T06:12:19.005Z,82.42
2022-08-17T06:15:03.009Z,82.71
2022-08-17T06:17:31.069Z,82.25
2022-08-17T06:20:00.354Z,82.67
2022-08-17T06:22:30.949Z,82.90
2022-08-17T06:25:03.884Z,84.13
2022-08-17T06:27:42.117Z,83.47
2022-08-17T06:30:15.597Z,84.39
2022-08-17T06:32:47.588Z,84.08
2022-08-17T06:35:18.285Z,85.49
2022-08-17T06:38:00.389Z,83.50
2022-08-17T06:40:45.508Z,82.10
2022-08-17T06:43:27.545Z,81.96
2022-08-17T06:45:59.747Z,83.24
2022-08-17T06:48:35.581Z,83.20
2022-08-17T06:51:06.214Z,83.26
2022-08-17T06:53:38.887Z,84.44
2022-08-17T06:56:09.602Z,84.38
2022-08-17T06:58:40.555Z,87.56
2022-08-17T07:01:19.102Z,87.49
2022-08-17T07:03:54.458Z,87.65
2022-08-17T07:06:23.686Z,88.37
2022-08-17T07:08:55.059Z,89.58
2022-08-17T07:11:28.865Z,88.06
2022-08-17T07:14:06.966Z,88.97
2022-08-17T07:16:38.284Z,88.89
2022-08-17T07:19:07.952Z,87.14
2022-08-17T07:21:46.965Z,87.87
2022-08-17T07:24:29.744Z,86.89
2022-08-17T07:27:11.259Z,88.26
2022-08-17T07:29:46.278Z,87.89
2022-08-17T07:32:17.793Z,85.23
2022-08-17T07:35:08.370Z,86.38
2022-08-17T07:37:40.454Z,84.63
2022-08-17T07:40:18.045Z,84.76
2022-08-17T07:43:04.835Z,83.86
2022-08-17T07:45:52.932Z,81.98
2022-08-17T07:48:22.696Z,82.25
2022-08-17T07:50:53.109Z,82.52
2022-08-17T07:53:24.050Z,81.13
2022-08-17T07:55:52.793Z,81.36
2022-08-17T07:58:23.341Z,81.62
2022-08-17T08:01:06.888Z,82.12
2022-08-17T08:03:35.145Z,81.61
2022-08-17T08:06:06.078Z,79.85
2022-08-17T08:08:38.049Z,78.91
2022-08-17T08:11:08.953Z,79.78
2022-08-17T08:13:42.281Z,80.30
2022-08-17T08:16:22.505Z,77.86
2022-08-17T08:18:57.263Z,79.14
2022-08-17T08:21:32.855Z,78.24
2022-08-17T08:24:17.362Z,78.49
2022-08-17T08:26:48.874Z,77.93
2022-08-17T08:29:28.203Z,77.96
2022-08-17T08:32:04.438Z,77.53
2022-08-17T08:34:53.347Z,76.78
2022-08-17T08:37:36.706Z,76.79
2022-08-17T08:40:27.336Z,75.45
2022-08-17T08:43:04.398Z,74.71
2022-08-17T08:45:39.289Z,75.92
2022-08-17T08:48:45.847Z,77.39
2022-08-17T08:51:14.129Z,76.72
2022-08-17T08:53:48.481Z,75.24
2022-08-17T08:56:20.916Z,70.97
2022-08-17T08:58:55.124Z,69.30
2022-08-17T09:01:29.379Z,69.59
2022-08-17T09:04:23.704Z,69.35
2022-08-17T09:07:00.365Z,70.73
2022-08-17T09:09:36.934Z,71.16
2022-08-17T09:12:09.632Z,68.75
2022-08-17T09:14:45.383Z,69.89
2022-08-17T09:17:18.461Z,68.87
2022-08-17T09:19:51.643Z,70.02
2022-08-17T09:22:26.386Z,68.20
2022-08-17T09:25:00.787Z,69.16
2022-08-17T09:27:33.244Z,68.92
2022-08-17T09:30:06.699Z,68.52
2022-08-17T09:32:38.843Z,68.71
2022-08-17T09:35:13.251Z,67.38
2022-08-17T09:37:59.905Z,65.83
2022-08-17T09:40:31.568Z,67.61
2022-08-17T09:43:04.020Z,67.71
2022-08-17T09:45:35.817Z,67.70
2022-08-17T09:48:09.109Z,68.25
2022-08-17T09:51:01.625Z,68.86
2022-08-17T09:53:32.110Z,68.18
2022-08-17T09:56:10.492Z,68.26
2022-08-17T09:58:46.428Z,68.49
2022-08-17T10:01:23.514Z,66.67
2022-08-17T10:04:09.349Z,67.22
2022-08-17T10:06:47.714Z,66.83
2022-08-17T10:09:22.783Z,67.03
2022-08-17T10:12:11.497Z,66.26
2022-08-17T10:14:44.805Z,65.30
2022-08-17T10:17:29.151Z,65.29
2022-08-17T10:20:04.944Z,64.60
2022-08-17T10:22:56.793Z,65.03
2022-08-17T10:25:54.551Z,65.18
2022-08-17T10:28:29.072Z,64.06
2022-08-17T10:33:55.887Z,62.72
2022-08-17T10:36:27.903Z,64.48
2022-08-17T10:39:05.291Z,63.46
2022-08-17T10:41:40.431Z,64.01
2022-08-17T10:44:37.943Z,61.93
2022-08-17T10:47:07.749Z,62.52
2022-08-17T10:49:36.412Z,62.18
2022-08-17T10:52:30.387Z,61.05
2022-08-17T10:55:13.843Z,59.99
2022-08-17T10:57:44.699Z,58.70
2022-08-17T11:00:58.297Z,61.47
2022-08-17T11:03:26.425Z,60.28
2022-08-17T11:06:02.982Z,59.31
2022-08-17T11:08:57.416Z,61.06
2022-08-17T11:11:57.480Z,60.44
2022-08-17T11:14:37.206Z,59.91
2022-08-17T11:17:14.558Z,58.28
2022-08-17T11:19:55.977Z,57.21
2022-08-17T11:22:55.549Z,57.57
2022-08-17T11:25:34.783Z,57.52
2022-08-17T11:28:10.569Z,57.26
2022-08-17T11:30:48.821Z,57.62
2022-08-17T11:33:54.306Z,57.22
2022-08-17T11:36:31.519Z,56.45
2022-08-17T11:39:05.600Z,54.59
2022-08-17T11:41:40.281Z,54.14
2022-08-17T11:44:30.030Z,55.55
2022-08-17T11:47:23.629Z,55.48
2022-08-17T11:50:27.890Z,56.23
2022-08-17T11:52:55.943Z,56.64
2022-08-17T11:55:57.157Z,56.94
2022-08-17T11:58:38.463Z,53.67
2022-08-17T12:01:09.785Z,54.38
2022-08-17T12:03:55.501Z,55.01
2022-08-17T12:06:31.192Z,55.03
2022-08-17T12:09:03.076Z,55.90
2022-08-17T12:12:01.542Z,54.09
2022-08-17T12:14:51.643Z,53.27
2022-08-17T12:17:41.271Z,52.94
2022-08-17T12:20:16.055Z,53.27
2022-08-17T12:22:53.276Z,53.50
2022-08-17T12:25:23.791Z,55.25
2022-08-17T12:28:04.827Z,55.37
2022-08-17T12:30:35.381Z,55.14
2022-08-17T12:33:04.892Z,53.31
2022-08-17T12:35:38.888Z,53.81
2022-08-17T12:38:32.601Z,54.01
2022-08-17T12:40:58.321Z,54.67
2022-08-17T12:43:30.277Z,55.36
2022-08-17T12:46:13.476Z,53.90
2022-08-17T12:48:58.879Z,54.59
2022-08-17T12:51:28.899Z,55.19
2022-08-17T12:53:56.648Z,54.44
2022-08-17T12:56:24.585Z,53.80
2022-08-17T12:58:55.433Z,51.52
2022-08-17T13:01:25.780Z,52.80
2022-08-17T13:03:59.592Z,54.40
2022-08-17T13:06:30.084Z,54.87
2022-08-17T13:08:57.901Z,55.01
2022-08-17T13:11:26.202Z,55.01
2022-08-17T13:13:56.248Z,53.83
2022-08-17T13:16:26.617Z,54.73
2022-08-17T13:19:05.349Z,55.11
2022-08-17T13:21:33.669Z,54.89
2022-08-17T13:24:03.574Z,54.33
2022-08-17T13:26:34.258Z,54.85
2022-08-17T13:29:04.541Z,53.98
2022-08-17T13:31:46.583Z,53.19
2022-08-17T13:34:35.771Z,53.48
2022-08-17T13:37:30.262Z,52.25
2022-08-17T13:40:01.432Z,54.38
2022-08-17T13:42:50.549Z,52.67
2022-08-17T13:45:39.671Z,53.44
2022-08-17T13:48:12.523Z,53.87
2022-08-17T13:50:45.930Z,55.00
2022-08-17T13:53:18.915Z,55.15
2022-08-17T13:55:51.454Z,54.84
2022-08-17T13:58:24.046Z,54.00
2022-08-17T14:00:52.690Z,54.82
2022-08-17T14:03:21.192Z,54.15
2022-08-17T14:05:51.288Z,54.29
2022-08-17T14:08:20.893Z,54.57
2022-08-17T14:10:58.044Z,54.11
2022-08-17T14:13:25.785Z,54.15
2022-08-17T14:15:56.556Z,53.60
2022-08-17T14:18:41.985Z,54.20
2022-08-17T14:21:14.270Z,53.66
2022-08-17T14:23:48.932Z,52.76
2022-08-17T14:26:22.127Z,53.38
2022-08-17T14:28:56.309Z,53.38
2022-08-17T14:31:24.912Z,53.90
2022-08-17T14:33:52.896Z,52.82
2022-08-17T14:36:23.777Z,53.00
2022-08-17T14:38:51.473Z,53.56
2022-08-17T14:41:22.135Z,53.15
2022-08-17T14:43:51.250Z,52.87
2022-08-17T14:46:19.015Z,51.93
2022-08-17T14:48:47.000Z,52.34
2022-08-17T14:51:14.701Z,52.13
2022-08-17T14:53:43.823Z,52.51
2022-08-17T14:56:11.520Z,53.03
2022-08-17T14:58:39.209Z,52.54
2022-08-17T15:01:09.414Z,52.39
2022-08-17T15:03:40.744Z,52.65
2022-08-17T15:06:09.770Z,53.00
2022-08-17T15:08:37.516Z,53.38
2022-08-17T15:11:06.845Z,53.22
2022-08-17T15:13:52.680Z,52.47
2022-08-17T15:16:20.936Z,53.18
2022-08-17T15:18:49.003Z,52.69
2022-08-17T15:21:18.038Z,53.05
2022-08-17T15:23:46.536Z,53.24
2022-08-17T15:26:16.681Z,53.27
2022-08-17T15:28:44.434Z,53.05
2022-08-17T15:31:31.764Z,52.96
2022-08-17T15:34:00.374Z,53.06
2022-08-17T15:36:28.200Z,53.39
2022-08-17T15:38:56.007Z,52.96
2022-08-17T15:41:25.351Z,52.70
2022-08-17T15:43:53.073Z,52.95
2022-08-17T15:46:25.586Z,52.59
2022-08-17T15:48:58.034Z,52.43
2022-08-17T15:51:27.637Z,52.56
2022-08-17T15:53:57.488Z,52.56
2022-08-17T15:56:27.663Z,53.14
2022-08-17T15:58:55.993Z,52.81
2022-08-17T16:02:20.001Z,53.10
2022-08-17T16:04:30.153Z,52.78
2022-08-17T16:06:59.013Z,53.17
2022-08-17T16:09:26.834Z,52.70
2022-08-17T16:11:56.475Z,52.95
2022-08-17T16:14:24.499Z,52.98
2022-08-17T16:17:00.158Z,53.02
2022-08-17T16:19:29.689Z,53.14
2022-08-17T16:21:57.624Z,52.96
2022-08-17T16:24:25.405Z,53.45
2022-08-17T16:26:55.423Z,53.14
2022-08-17T16:29:24.576Z,53.45
2022-08-17T16:31:52.503Z,53.71
2022-08-17T16:34:20.989Z,53.06
2022-08-17T16:36:53.620Z,53.80
2022-08-17T16:39:23.701Z,53.57
2022-08-17T16:41:51.412Z,53.18
2022-08-17T16:44:21.196Z,53.67
2022-08-17T16:46:50.501Z,54.09
2022-08-17T16:49:36.025Z,53.63
2022-08-17T16:52:07.300Z,53.74
2022-08-17T16:54:36.061Z,53.37
2022-08-17T16:57:05.442Z,53.66
2022-08-17T16:59:40.914Z,54.01
2022-08-17T17:02:14.773Z,53.84
2022-08-17T17:04:47.977Z,54.28
2022-08-17T17:07:34.698Z,54.25
2022-08-17T17:10:05.916Z,54.42
2022-08-17T17:13:02.715Z,54.81
2022-08-17T17:15:22.451Z,54.84
2022-08-17T17:17:52.265Z,55.41
2022-08-17T17:20:23.753Z,55.88
2022-08-17T17:23:03.002Z,56.85
2022-08-17T17:25:34.205Z,56.98
2022-08-17T17:28:05.207Z,58.09
2022-08-17T17:30:38.988Z,58.58
2022-08-17T17:33:12.041Z,58.60
2022-08-17T17:35:47.333Z,58.72
2022-08-17T17:38:18.602Z,59.71
2022-08-17T17:40:50.085Z,59.20
2022-08-17T17:43:38.297Z,60.16
2022-08-17T17:46:27.306Z,62.96
2022-08-17T17:48:58.184Z,65.21
2022-08-17T17:52:09.146Z,71.89
2022-08-17T17:54:40.056Z,74.06
2022-08-17T17:57:15.145Z,73.22
2022-08-17T17:59:47.577Z,73.78
2022-08-17T18:02:40.755Z,73.17
2022-08-17T18:05:18.341Z,73.05
2022-08-17T18:07:52.455Z,73.60
2022-08-17T18:10:30.115Z,72.02
2022-08-17T18:13:10.025Z,75.66
2022-08-17T18:15:41.826Z,76.63
2022-08-17T18:18:39.248Z,77.79
2022-08-17T18:21:15.629Z,77.79
2022-08-17T18:23:54.975Z,77.55
2022-08-17T18:26:43.790Z,78.13
2022-08-17T18:29:31.216Z,75.99
2022-08-17T18:32:34.776Z,75.43
2022-08-17T18:35:27.787Z,77.35
2022-08-17T18:37:58.593Z,78.55
2022-08-17T18:40:32.759Z,76.87
2022-08-17T18:43:23.043Z,76.15
2022-08-17T18:45:53.325Z,77.13
2022-08-17T18:48:27.683Z,78.60
2022-08-17T18:50:57.587Z,79.82
2022-08-17T18:53:36.104Z,78.88
2022-08-17T18:56:22.007Z,79.38
2022-08-17T18:59:04.660Z,80.24
2022-08-17T19:01:54.447Z,79.20
2022-08-17T19:04:35.051Z,77.69
2022-08-17T19:07:24.957Z,77.69
2022-08-17T19:09:57.386Z,77.70
2022-08-17T19:12:29.193Z,77.38
2022-08-17T19:14:57.960Z,76.79
2022-08-17T19:17:33.004Z,74.95
2022-08-17T19:20:04.829Z,73.87
2022-08-17T19:22:55.974Z,74.82
2022-08-17T19:25:29.280Z,73.83
2022-08-17T19:28:05.052Z,75.16
2022-08-17T19:30:50.301Z,75.16
2022-08-17T19:33:19.241Z,74.76
2022-08-17T19:35:51.036Z,74.42
2022-08-17T19:38:27.992Z,75.02
2022-08-17T19:41:04.188Z,73.46
2022-08-17T19:44:10.018Z,72.71
2022-08-17T19:46:48.590Z,72.79
2022-08-17T19:49:33.451Z,73.34
2022-08-17T19:52:21.858Z,72.98
2022-08-17T19:54:55.476Z,73.25
2022-08-17T19:57:35.354Z,74.09
2022-08-17T20:00:08.504Z,74.11
2022-08-17T20:02:40.136Z,73.72
2022-08-17T20:05:12.364Z,72.79
2022-08-17T20:07:44.914Z,74.29
2022-08-17T20:10:17.028Z,75.73
2022-08-17T20:12:46.849Z,76.14
2022-08-17T20:15:19.125Z,75.04
2022-08-17T20:17:48.346Z,74.84
2022-08-17T20:20:23.335Z,74.01
2022-08-17T20:22:55.131Z,73.82
2022-08-17T20:25:30.473Z,73.24
2022-08-17T20:28:07.630Z,73.03
2022-08-17T20:30:38.299Z,72.81
2022-08-17T20:33:07.755Z,72.63
2022-08-17T20:35:41.038Z,74.13
2022-08-17T20:38:11.300Z,74.45
2022-08-17T20:40:41.276Z,73.61
2022-08-17T20:43:42.812Z,73.39
2022-08-17T20:46:21.853Z,73.24
2022-08-17T20:48:51.546Z,72.55
2022-08-17T20:51:29.515Z,72.01
2022-08-17T20:54:23.523Z,72.34
2022-08-17T20:56:56.123Z,73.31
2022-08-17T21:00:15.115Z,72.67
2022-08-17T21:02:46.022Z,72.98
2022-08-17T21:05:38.675Z,73.21
2022-08-17T21:08:15.145Z,73.01
2022-08-17T21:10:46.732Z,73.16
2022-08-17T21:13:48.957Z,73.36
2022-08-17T21:16:40.330Z,73.11
2022-08-17T21:19:25.321Z,74.62
2022-08-17T21:22:04.153Z,73.11
2022-08-17T21:24:41.333Z,72.88
2022-08-17T21:27:24.790Z,75.34
2022-08-17T21:29:54.253Z,74.85
2022-08-17T21:32:32.261Z,73.73
2022-08-17T21:35:31.016Z,73.53
2022-08-17T21:38:04.896Z,74.03
2022-08-17T21:40:33.966Z,74.00
2022-08-17T21:43:23.923Z,74.03
2022-08-17T21:45:58.121Z,73.37
2022-08-17T21:48:27.107Z,73.88
2022-08-17T21:51:03.489Z,74.98
2022-08-17T21:53:37.735Z,74.57
2022-08-17T21:56:06.111Z,76.42
2022-08-17T21:58:39.103Z,75.35
2022-08-17T22:01:20.053Z,74.74
2022-08-17T22:03:55.373Z,74.68
2022-08-17T22:06:27.047Z,75.02
2022-08-17T22:08:59.901Z,74.63
2022-08-17T22:11:27.636Z,74.16
2022-08-17T22:14:05.151Z,75.29
2022-08-17T22:16:33.768Z,74.11
2022-08-17T22:19:03.505Z,74.57
2022-08-17T22:21:32.613Z,74.54
2022-08-17T22:24:06.398Z,75.98
2022-08-17T22:27:00.748Z,73.91
2022-08-17T22:29:45.714Z,75.81
2022-08-17T22:32:39.128Z,75.50
2022-08-17T22:35:34.404Z,74.38
2022-08-17T22:38:29.533Z,74.30
2022-08-17T22:41:15.497Z,74.00
2022-08-17T22:43:44.709Z,74.14
2022-08-17T22:46:13.137Z,74.54
2022-08-17T22:48:47.592Z,75.07
2022-08-17T22:51:19.629Z,75.95
2022-08-17T22:54:08.535Z,76.00
2022-08-17T22:56:54.096Z,76.50
2022-08-17T22:59:40.396Z,77.01
2022-08-17T23:02:20.047Z,76.08
2022-08-17T23:04:51.166Z,76.52
2022-08-17T23:07:19.603Z,75.22
2022-08-17T23:09:48.694Z,75.00
2022-08-17T23:12:19.891Z,76.32
2022-08-17T23:14:51.251Z,75.54
2022-08-17T23:17:19.013Z,76.30
2022-08-17T23:19:46.784Z,75.66
2022-08-17T23:22:14.524Z,76.47
2022-08-17T23:24:48.913Z,76.87
2022-08-17T23:27:17.079Z,77.38
2022-08-17T23:29:46.965Z,76.74
2022-08-17T23:32:16.161Z,75.93
2022-08-17T23:34:46.993Z,76.16
2022-08-17T23:37:15.066Z,75.75
2022-08-17T23:39:44.676Z,76.32
2022-08-17T23:42:21.615Z,76.08
2022-08-17T23:44:50.087Z,76.35
2022-08-17T23:47:18.389Z,77.40
2022-08-17T23:49:46.119Z,77.58
2022-08-17T23:52:16.518Z,76.17
2022-08-17T23:54:46.965Z,75.87
2022-08-17T23:57:18.396Z,76.27
2022-08-17T23:59:46.129Z,75.99
